Time;durP1;ratioP1;P1;durP2;ratioP2;P2;SDS_P1;SDS_P2;PMS_P1;PMS_P2;Temp;Humidity;BMP_temperature;BMP_pressure;BME280_temperature;BME280_humidity;BME280_pressure;Samples;Min_cycle;Max_cycle;Signal;HPM_P1;HPM_P2
2022/07/16 00:01:26;;;;;;;5.10;2.50;;;24.50;74.60;;;;;;5049458;28;20044;-66
2022/07/16 00:04:31;;;;;;;4.55;2.60;;;24.50;74.80;;;;;;5049622;28;20523;-64
2022/07/16 00:07:34;;;;;;;3.63;2.22;;;24.50;75.00;;;;;;5049050;28;20052;-65
2022/07/16 00:10:38;;;;;;;3.47;2.55;;;24.40;75.20;;;;;;5049355;28;20048;-62
2022/07/16 00:13:42;;;;;;;2.85;2.50;;;24.40;75.40;;;;;;5049525;28;20051;-65
2022/07/16 00:16:47;;;;;;;4.20;2.30;;;24.30;75.70;;;;;;5049928;28;20044;-65
2022/07/16 00:19:51;;;;;;;5.45;2.60;;;24.20;76.00;;;;;;5049564;28;20048;-65
2022/07/16 00:22:54;;;;;;;4.43;2.35;;;24.10;76.20;;;;;;5049703;28;20040;-66
2022/07/16 00:25:58;;;;;;;3.47;2.33;;;24.10;76.30;;;;;;5049384;28;20044;-62
2022/07/16 00:29:02;;;;;;;2.63;2.33;;;24.10;76.60;;;;;;5049373;28;20048;-65
2022/07/16 00:32:06;;;;;;;2.75;2.28;;;24.10;76.60;;;;;;5049173;28;20056;-66
2022/07/16 00:35:11;;;;;;;3.40;2.45;;;24.20;77.00;;;;;;5049260;28;20048;-65
2022/07/16 00:38:14;;;;;;;3.88;2.35;;;24.20;77.00;;;;;;5049127;28;20055;-66
2022/07/16 00:41:18;;;;;;;3.42;2.10;;;24.20;77.20;;;;;;5051588;28;20420;-60
2022/07/16 00:44:23;;;;;;;3.58;2.63;;;24.20;77.40;;;;;;5053110;28;20048;-64
2022/07/16 00:47:27;;;;;;;3.40;2.97;;;24.20;77.80;;;;;;5052433;28;20048;-63
2022/07/16 00:50:33;;;;;;;3.80;2.28;;;24.20;78.30;;;;;;5052838;28;20047;-65
2022/07/16 00:53:38;;;;;;;3.85;2.17;;;24.20;79.10;;;;;;5053073;28;20048;-65
2022/07/16 00:56:42;;;;;;;4.38;2.05;;;24.20;79.70;;;;;;5053066;28;20056;-62
2022/07/16 00:59:46;;;;;;;5.50;2.50;;;24.20;80.10;;;;;;5052867;28;20403;-64
2022/07/16 01:02:50;;;;;;;3.65;2.50;;;24.10;80.30;;;;;;5053579;28;20052;-64
2022/07/16 01:05:55;;;;;;;3.05;2.75;;;24.10;80.80;;;;;;5053139;28;20047;-66
2022/07/16 01:09:00;;;;;;;7.85;4.03;;;24.00;81.20;;;;;;5052005;28;20048;-65
2022/07/16 01:12:05;;;;;;;4.15;3.38;;;23.90;82.40;;;;;;5052786;28;20052;-60
2022/07/16 01:15:10;;;;;;;4.25;3.20;;;23.70;82.80;;;;;;5052539;28;20040;-65
2022/07/16 01:18:15;;;;;;;4.05;2.65;;;23.70;83.50;;;;;;5052387;28;20048;-65
2022/07/16 01:21:19;;;;;;;4.93;2.63;;;23.50;84.00;;;;;;5052520;28;20052;-66
2022/07/16 01:24:22;;;;;;;3.42;2.70;;;23.40;84.10;;;;;;5052280;28;20048;-64
2022/07/16 01:27:27;;;;;;;4.38;2.83;;;23.40;83.60;;;;;;5052704;28;20502;-65
2022/07/16 01:30:31;;;;;;;3.85;2.88;;;23.40;83.30;;;;;;5052285;28;20064;-67
2022/07/16 01:33:40;;;;;;;4.00;2.53;;;23.30;83.60;;;;;;5052395;28;20073;-65
2022/07/16 01:37:03;;;;;;;4.72;2.70;;;23.20;84.50;;;;;;5052324;28;20048;-65
2022/07/16 01:40:07;;;;;;;4.30;2.75;;;23.10;84.40;;;;;;5051804;28;20047;-66
2022/07/16 01:43:14;;;;;;;5.45;2.60;;;22.90;84.10;;;;;;5052123;28;20044;-63
2022/07/16 01:46:18;;;;;;;3.85;2.42;;;22.90;84.40;;;;;;5052687;28;20395;-65
2022/07/16 01:49:23;;;;;;;5.18;3.05;;;22.90;84.60;;;;;;5051959;28;20044;-65
2022/07/16 01:52:27;;;;;;;6.82;2.70;;;22.70;84.90;;;;;;5051276;28;20428;-65
2022/07/16 01:55:33;;;;;;;3.53;2.92;;;22.70;85.00;;;;;;5051988;28;20032;-66
2022/07/16 01:58:39;;;;;;;8.07;2.95;;;22.70;85.60;;;;;;5052128;28;20047;-61
2022/07/16 02:01:42;;;;;;;5.57;3.00;;;22.60;86.20;;;;;;5051519;28;20045;-65
2022/07/16 02:04:46;;;;;;;4.13;2.55;;;22.60;86.40;;;;;;5051574;28;20040;-65
2022/07/16 02:07:51;;;;;;;2.90;2.53;;;22.60;86.20;;;;;;5051914;28;20044;-65
2022/07/16 02:10:55;;;;;;;4.90;2.80;;;22.70;86.30;;;;;;5051409;28;20052;-65
2022/07/16 02:13:58;;;;;;;3.92;2.40;;;22.60;86.90;;;;;;5051452;28;20040;-64
2022/07/16 02:17:03;;;;;;;4.00;2.90;;;22.50;87.40;;;;;;5051583;28;20059;-65
2022/07/16 02:20:08;;;;;;;7.47;2.88;;;22.40;88.00;;;;;;5051179;28;20048;-65
2022/07/16 02:23:12;;;;;;;3.63;2.90;;;22.30;88.60;;;;;;5051565;28;20534;-65
2022/07/16 02:26:16;;;;;;;6.22;2.97;;;22.10;89.20;;;;;;5051615;28;20040;-63
2022/07/16 02:29:20;;;;;;;5.07;2.75;;;22.00;90.10;;;;;;5051630;28;20051;-62
2022/07/16 02:32:24;;;;;;;5.50;2.70;;;22.00;90.40;;;;;;5051352;28;20051;-64
2022/07/16 02:35:28;;;;;;;3.17;2.60;;;22.00;90.40;;;;;;5051311;28;20036;-65
2022/07/16 02:38:32;;;;;;;4.13;3.00;;;22.00;90.80;;;;;;5051253;28;20044;-64
2022/07/16 02:41:36;;;;;;;4.43;2.75;;;22.00;91.10;;;;;;5050555;28;20399;-65
2022/07/16 02:44:40;;;;;;;6.30;2.80;;;22.00;91.20;;;;;;5051084;28;20052;-65
2022/07/16 02:47:44;;;;;;;7.97;2.60;;;21.90;91.30;;;;;;5050936;28;20032;-64
2022/07/16 02:50:48;;;;;;;5.30;3.15;;;21.90;91.30;;;;;;5050280;28;20036;-65
2022/07/16 02:53:53;;;;;;;3.13;2.83;;;21.90;91.70;;;;;;5050611;28;20052;-65
2022/07/16 02:56:56;;;;;;;6.70;3.08;;;21.90;91.90;;;;;;5050110;28;20052;-65
2022/07/16 03:00:00;;;;;;;4.15;2.80;;;21.80;92.40;;;;;;5050782;28;20036;-64
2022/07/16 03:03:04;;;;;;;4.93;2.80;;;21.70;92.50;;;;;;5050508;28;20060;-64
2022/07/16 03:06:08;;;;;;;3.55;3.03;;;21.60;92.70;;;;;;5050597;28;20487;-65
2022/07/16 03:09:13;;;;;;;8.80;3.13;;;21.50;92.90;;;;;;5051021;28;20044;-64
2022/07/16 03:12:18;;;;;;;5.45;3.00;;;21.40;93.60;;;;;;5050517;28;20412;-65
2022/07/16 03:15:22;;;;;;;3.95;3.00;;;21.40;95.10;;;;;;5050701;28;20059;-65
2022/07/16 03:18:26;;;;;;;5.72;3.10;;;21.30;94.70;;;;;;5050083;28;20044;-65
2022/07/16 03:21:30;;;;;;;5.65;3.20;;;21.30;94.90;;;;;;5049830;28;20040;-64
2022/07/16 03:24:35;;;;;;;6.00;3.10;;;21.30;95.20;;;;;;5050416;28;20048;-65
2022/07/16 03:27:39;;;;;;;7.30;3.13;;;21.30;95.70;;;;;;5050549;28;20502;-65
2022/07/16 03:30:43;;;;;;;6.00;3.05;;;21.20;96.00;;;;;;5050092;28;20044;-65
2022/07/16 03:33:47;;;;;;;4.85;3.35;;;21.10;96.50;;;;;;5049999;28;20510;-59
2022/07/16 03:36:51;;;;;;;5.75;3.25;;;21.10;97.70;;;;;;5050330;28;20048;-65
2022/07/16 03:39:55;;;;;;;5.35;3.13;;;21.10;97.70;;;;;;5050157;28;20056;-64
2022/07/16 03:42:59;;;;;;;4.13;3.05;;;21.10;98.30;;;;;;5050017;28;20502;-64
2022/07/16 03:46:03;;;;;;;8.15;3.55;;;21.10;98.60;;;;;;5050101;28;20040;-65
2022/07/16 03:49:07;;;;;;;5.90;3.15;;;21.10;99.00;;;;;;5050053;28;20405;-66
2022/07/16 03:52:11;;;;;;;4.05;3.33;;;21.00;99.40;;;;;;5049626;28;20063;-63
2022/07/16 03:55:16;;;;;;;5.53;3.00;;;21.00;99.60;;;;;;5049744;28;20064;-65
2022/07/16 03:58:20;;;;;;;6.97;3.42;;;20.90;99.80;;;;;;5049981;28;20407;-66
2022/07/16 04:01:24;;;;;;;5.68;3.13;;;20.90;99.90;;;;;;5049360;28;20047;-65
2022/07/16 04:04:29;;;;;;;10.80;3.70;;;20.90;99.90;;;;;;5049642;28;20514;-65
2022/07/16 04:07:33;;;;;;;6.13;3.47;;;20.90;99.90;;;;;;5049914;28;20052;-65
2022/07/16 04:10:37;;;;;;;7.03;3.65;;;20.90;99.90;;;;;;5049738;28;20415;-65
2022/07/16 04:13:41;;;;;;;6.43;3.35;;;21.00;99.90;;;;;;5049517;28;20407;-65
2022/07/16 04:16:45;;;;;;;8.98;3.45;;;21.00;99.90;;;;;;5049436;28;20060;-65
2022/07/16 04:19:50;;;;;;;9.15;3.70;;;21.10;99.90;;;;;;5049377;28;20048;-63
2022/07/16 04:22:55;;;;;;;13.85;3.47;;;21.10;99.90;;;;;;5049352;28;20043;-65
2022/07/16 04:25:59;;;;;;;10.80;3.63;;;21.10;99.90;;;;;;5049768;28;20044;-65
2022/07/16 04:29:03;;;;;;;12.30;3.83;;;21.20;99.90;;;;;;5049623;28;20043;-64
2022/07/16 04:32:07;;;;;;;10.57;3.97;;;21.30;99.90;;;;;;5049309;28;20518;-64
2022/07/16 04:35:13;;;;;;;9.23;3.72;;;21.30;99.90;;;;;;5049829;28;20060;-65
2022/07/16 04:38:18;;;;;;;9.32;4.28;;;21.40;99.90;;;;;;5049620;28;20052;-63
2022/07/16 04:41:21;;;;;;;8.43;3.47;;;21.70;99.90;;;;;;5049243;28;20040;-64
2022/07/16 04:44:25;;;;;;;10.30;3.78;;;23.60;99.90;;;;;;5049438;28;20068;-65
2022/07/16 04:47:29;;;;;;;10.30;4.05;;;26.00;96.50;;;;;;5049518;28;20051;-65
2022/07/16 04:50:33;;;;;;;11.23;3.45;;;28.00;93.00;;;;;;5049236;28;20052;-65
2022/07/16 04:53:37;;;;;;;5.43;3.03;;;29.60;89.50;;;;;;5047735;28;20044;-62
2022/07/16 04:56:43;;;;;;;11.02;3.33;;;30.80;84.70;;;;;;5049318;28;20056;-66
2022/07/16 04:59:47;;;;;;;7.18;2.90;;;31.60;81.30;;;;;;5049204;28;20048;-64
2022/07/16 05:02:56;;;;;;;6.40;2.60;;;32.20;78.70;;;;;;5048880;28;20406;-65
2022/07/16 05:06:00;;;;;;;5.72;2.55;;;32.20;77.70;;;;;;5049090;28;20044;-65
2022/07/16 05:09:04;;;;;;;9.30;3.28;;;32.40;76.60;;;;;;5049209;28;20041;-65
2022/07/16 05:12:08;;;;;;;6.70;2.95;;;32.80;76.40;;;;;;5048848;28;20056;-66
2022/07/16 05:15:12;;;;;;;4.72;2.85;;;31.60;76.90;;;;;;5049096;28;20056;-65
2022/07/16 05:18:16;;;;;;;4.68;3.08;;;31.20;77.40;;;;;;5048979;28;20048;-65
2022/07/16 05:21:20;;;;;;;5.75;2.53;;;31.00;77.60;;;;;;5048856;28;20052;-65
2022/07/16 05:24:24;;;;;;;4.65;2.30;;;31.90;76.80;;;;;;5048477;28;20518;-62
2022/07/16 05:27:28;;;;;;;3.22;2.40;;;32.50;76.10;;;;;;5050434;28;20044;-65
2022/07/16 05:30:32;;;;;;;4.47;2.50;;;32.80;75.20;;;;;;5052627;28;20044;-64
2022/07/16 05:33:36;;;;;;;4.28;2.90;;;32.70;75.10;;;;;;5052176;28;20048;-66
2022/07/16 05:36:40;;;;;;;8.27;2.65;;;32.70;74.90;;;;;;5052554;28;20048;-65
2022/07/16 05:39:44;;;;;;;5.22;2.58;;;32.50;75.60;;;;;;5052727;28;20127;-66
2022/07/16 05:42:48;;;;;;;3.17;2.33;;;31.50;76.00;;;;;;5052489;28;20051;-64
2022/07/16 05:45:52;;;;;;;4.93;2.72;;;29.70;77.90;;;;;;5052578;28;20044;-65
2022/07/16 05:48:55;;;;;;;4.13;2.47;;;29.60;79.70;;;;;;5052505;28;20431;-65
2022/07/16 05:52:01;;;;;;;6.15;2.50;;;30.40;79.00;;;;;;5052576;28;20052;-64
2022/07/16 05:55:06;;;;;;;5.75;3.03;;;31.00;77.70;;;;;;5052563;28;20072;-65
2022/07/16 05:58:10;;;;;;;5.97;2.58;;;30.30;77.50;;;;;;5052686;28;20099;-62
2022/07/16 06:01:14;;;;;;;6.07;2.28;;;29.90;77.90;;;;;;5050846;28;20048;-62
2022/07/16 06:04:18;;;;;;;6.93;2.58;;;30.30;77.80;;;;;;5051912;28;20048;-65
2022/07/16 06:07:23;;;;;;;7.35;2.40;;;31.20;76.60;;;;;;5052189;28;20056;-63
2022/07/16 06:10:27;;;;;;;7.05;2.20;;;31.40;76.30;;;;;;5051834;28;20514;-65
2022/07/16 06:13:31;;;;;;;2.38;2.00;;;31.70;76.50;;;;;;5051453;28;20059;-63
2022/07/16 06:16:34;;;;;;;8.52;2.20;;;32.70;74.30;;;;;;5052040;28;20056;-62
2022/07/16 06:19:41;;;;;;;5.28;2.65;;;31.60;74.40;;;;;;5051013;28;20409;-65
2022/07/16 06:22:45;;;;;;;4.80;2.05;;;30.60;75.40;;;;;;5051866;28;20052;-64
2022/07/16 06:25:49;;;;;;;5.70;2.30;;;31.20;75.60;;;;;;5051819;28;20048;-64
2022/07/16 06:28:53;;;;;;;6.93;2.22;;;30.70;76.00;;;;;;5051915;28;20072;-63
2022/07/16 06:31:57;;;;;;;2.92;2.20;;;31.00;76.10;;;;;;5051636;28;20408;-65
2022/07/16 06:35:02;;;;;;;3.80;2.42;;;32.10;74.50;;;;;;5051392;28;20048;-65
2022/07/16 06:38:07;;;;;;;3.90;2.20;;;32.30;73.70;;;;;;5051032;28;20059;-66
2022/07/16 06:41:11;;;;;;;7.82;2.65;;;31.40;74.40;;;;;;5051303;28;20044;-65
2022/07/16 06:44:15;;;;;;;4.00;2.10;;;30.70;74.90;;;;;;5050697;28;20055;-65
2022/07/16 06:47:19;;;;;;;5.22;2.53;;;30.90;76.30;;;;;;5051010;28;20039;-65
2022/07/16 06:50:24;;;;;;;2.58;2.13;;;31.00;75.70;;;;;;5050909;28;20051;-65
2022/07/16 06:53:28;;;;;;;3.80;1.83;;;32.10;74.60;;;;;;5050342;28;20040;-66
2022/07/16 06:56:32;;;;;;;3.83;2.10;;;32.70;73.20;;;;;;5050847;28;20060;-65
2022/07/16 06:59:37;;;;;;;4.75;1.73;;;33.80;71.60;;;;;;5050977;28;20104;-65
2022/07/16 07:02:40;;;;;;;2.30;1.70;;;33.40;71.10;;;;;;5051107;28;20040;-64
2022/07/16 07:05:44;;;;;;;5.97;2.13;;;34.40;70.20;;;;;;5050848;28;20501;-65
2022/07/16 07:08:48;;;;;;;4.40;1.70;;;35.50;68.80;;;;;;5050722;28;20048;-65
2022/07/16 07:11:52;;;;;;;4.70;2.15;;;33.80;69.60;;;;;;5050629;28;20060;-65
2022/07/16 07:14:56;;;;;;;6.13;1.92;;;33.70;69.50;;;;;;5050243;28;20052;-65
2022/07/16 07:18:00;;;;;;;6.03;1.67;;;34.60;68.30;;;;;;5050346;28;20048;-65
2022/07/16 07:21:04;;;;;;;4.60;1.90;;;34.90;68.70;;;;;;5050527;28;20052;-65
2022/07/16 07:24:08;;;;;;;4.43;1.85;;;35.90;67.30;;;;;;5050054;28;20044;-65
2022/07/16 07:27:12;;;;;;;2.08;1.50;;;36.60;66.20;;;;;;5050470;28;20040;-66
2022/07/16 07:30:16;;;;;;;5.03;1.63;;;37.00;65.90;;;;;;5050175;28;20041;-66
2022/07/16 07:33:20;;;;;;;5.22;1.95;;;37.60;65.10;;;;;;5056149;22;20577;-70
2022/07/16 07:36:24;;;;;;;4.32;1.63;;;38.70;64.30;;;;;;5050221;28;20043;-70
2022/07/16 07:39:28;;;;;;;4.00;1.40;;;39.40;63.00;;;;;;5050618;28;20047;-70
2022/07/16 07:42:32;;;;;;;2.63;1.42;;;39.00;63.10;;;;;;5050329;28;20043;-70
2022/07/16 07:45:36;;;;;;;4.13;1.60;;;37.50;63.90;;;;;;5050847;28;20048;-70
2022/07/16 07:48:40;;;;;;;4.32;1.60;;;38.40;63.40;;;;;;5050682;28;20029;-71
2022/07/16 07:51:45;;;;;;;6.53;2.00;;;37.50;63.80;;;;;;5050498;28;20052;-70
2022/07/16 07:54:49;;;;;;;2.90;1.40;;;36.80;64.00;;;;;;5049896;28;20498;-70
2022/07/16 07:57:53;;;;;;;4.05;1.58;;;37.30;63.70;;;;;;5050637;28;20103;-70
2022/07/16 08:00:57;;;;;;;4.20;1.67;;;38.50;62.00;;;;;;5049874;28;20498;-70
2022/07/16 08:04:01;;;;;;;3.10;1.50;;;38.90;62.10;;;;;;5049900;28;20048;-70
2022/07/16 08:07:05;;;;;;;3.88;1.60;;;39.10;62.30;;;;;;5050665;28;20035;-71
2022/07/16 08:10:11;;;;;;;3.00;1.55;;;39.50;61.10;;;;;;5050080;28;20533;-70
2022/07/16 08:13:15;;;;;;;5.63;1.50;;;40.50;60.70;;;;;;5049895;28;20100;-70
2022/07/16 08:16:18;;;;;;;4.20;1.70;;;40.20;60.80;;;;;;5050224;28;20478;-70
2022/07/16 08:19:23;;;;;;;4.63;1.67;;;41.30;60.40;;;;;;5050162;28;20044;-70
2022/07/16 08:22:27;;;;;;;5.72;1.65;;;39.80;60.30;;;;;;5049964;28;20099;-70
2022/07/16 08:25:45;;;;;;;4.32;1.40;;;40.40;60.00;;;;;;5049699;28;20051;-70
2022/07/16 08:28:49;;;;;;;9.10;1.60;;;41.50;58.80;;;;;;5050477;28;20036;-71
2022/07/16 08:31:53;;;;;;;1.70;1.40;;;41.60;57.60;;;;;;5049854;28;20044;-71
2022/07/16 08:34:57;;;;;;;3.13;1.50;;;42.90;56.40;;;;;;5049549;28;20120;-70
2022/07/16 08:38:01;;;;;;;3.72;1.50;;;42.80;56.00;;;;;;5049863;28;20403;-70
2022/07/16 08:41:06;;;;;;;3.17;1.30;;;42.20;56.90;;;;;;5050135;28;20060;-70
2022/07/16 08:44:12;;;;;;;3.15;1.35;;;42.50;56.80;;;;;;5049594;28;20052;-70
2022/07/16 08:47:18;;;;;;;3.28;1.23;;;42.50;56.20;;;;;;5050259;28;20044;-71
2022/07/16 08:50:22;;;;;;;3.03;1.30;;;42.10;55.90;;;;;;5049709;28;20044;-70
2022/07/16 08:53:30;;;;;;;3.55;1.00;;;42.90;56.40;;;;;;5049573;28;20057;-70
2022/07/16 08:56:35;;;;;;;3.05;1.63;;;44.60;54.90;;;;;;5050036;28;20032;-71
2022/07/16 08:59:39;;;;;;;6.78;1.40;;;43.50;54.10;;;;;;5049798;28;20518;-70
2022/07/16 09:02:44;;;;;;;2.97;1.40;;;44.80;53.30;;;;;;5052839;28;20111;-70
2022/07/16 09:05:50;;;;;;;1.95;1.25;;;46.20;51.90;;;;;;5053485;28;20060;-70
2022/07/16 09:08:54;;;;;;;1.95;1.13;;;47.60;50.30;;;;;;5053843;28;20048;-71
2022/07/16 09:12:00;;;;;;;1.45;1.00;;;48.20;50.10;;;;;;5053737;28;20055;-70
2022/07/16 09:15:25;;;;;;;1.50;0.98;;;48.70;49.90;;;;;;5052559;28;20048;-71
2022/07/16 09:18:28;;;;;;;3.50;1.20;;;49.40;49.90;;;;;;5053096;28;20051;-71
2022/07/16 09:21:33;;;;;;;2.30;1.05;;;50.00;49.80;;;;;;5052829;28;20047;-72
2022/07/16 09:24:47;;;;;;;3.35;1.08;;;50.40;48.90;;;;;;5052720;28;20040;-71
2022/07/16 09:28:01;;;;;;;4.63;1.10;;;50.60;49.00;;;;;;5053024;28;20503;-71
2022/07/16 09:31:04;;;;;;;1.80;1.05;;;50.90;48.50;;;;;;5053046;28;20040;-70
2022/07/16 09:34:10;;;;;;;2.15;1.10;;;51.30;48.40;;;;;;5052481;28;20047;-70
2022/07/16 09:37:14;;;;;;;4.80;1.80;;;50.40;47.90;;;;;;5053184;28;20047;-71
2022/07/16 09:40:31;;;;;;;4.32;1.10;;;49.10;48.60;;;;;;5052971;28;20044;-71
2022/07/16 09:43:41;;;;;;;3.13;1.20;;;49.50;49.10;;;;;;5052550;28;20048;-71
2022/07/16 09:46:57;;;;;;;1.70;1.30;;;50.40;48.60;;;;;;5053008;28;20354;-72
2022/07/16 09:50:02;;;;;;;5.63;1.50;;;51.40;48.20;;;;;;5052619;28;20048;-70
2022/07/16 09:53:14;;;;;;;3.17;1.02;;;52.30;47.60;;;;;;5052732;28;20400;-70
2022/07/16 09:56:24;;;;;;;3.40;1.33;;;53.00;46.90;;;;;;5052206;28;20391;-70
2022/07/16 09:59:28;;;;;;;2.10;1.23;;;53.20;46.70;;;;;;5052713;28;20060;-70
2022/07/16 10:02:32;;;;;;;1.48;1.10;;;53.90;46.60;;;;;;5052302;28;20051;-71
2022/07/16 10:05:36;;;;;;;1.98;1.10;;;53.80;46.50;;;;;;5052700;28;20048;-71
2022/07/16 10:08:41;;;;;;;4.03;1.30;;;54.30;46.20;;;;;;5063508;28;20044;-71
2022/07/16 10:11:45;;;;;;;1.20;1.10;;;54.60;45.90;;;;;;5052434;28;20502;-69
2022/07/16 10:14:52;;;;;;;2.42;1.15;;;54.60;45.60;;;;;;5051513;28;20043;-72
2022/07/16 10:17:56;;;;;;;1.50;1.10;;;53.80;45.50;;;;;;5051936;28;20040;-72
2022/07/16 10:21:21;;;;;;;2.55;1.20;;;52.90;45.80;;;;;;5052011;28;20301;-71
2022/07/16 10:24:47;;;;;;;3.97;1.40;;;51.90;46.20;;;;;;5051693;28;20048;-71
2022/07/16 10:27:53;;;;;;;3.60;1.17;;;52.00;45.90;;;;;;5052644;28;20585;-71
2022/07/16 10:31:36;;;;;;;3.13;1.27;;;52.20;46.10;;;;;;5052077;28;20040;-71
2022/07/16 10:34:40;;;;;;;3.95;1.35;;;52.60;45.80;;;;;;5052052;28;20043;-72
2022/07/16 10:37:44;;;;;;;4.43;1.42;;;48.90;46.00;;;;;;5050876;28;20044;-72
2022/07/16 10:41:06;;;;;;;3.45;1.50;;;49.20;46.50;;;;;;5039118;28;20044;-71
2022/07/16 10:44:12;;;;;;;4.28;1.20;;;50.50;46.40;;;;;;5051432;28;20064;-72
2022/07/16 10:47:17;;;;;;;7.55;1.38;;;51.50;46.00;;;;;;5051945;28;20052;-72
2022/07/16 10:50:23;;;;;;;2.47;1.30;;;52.00;45.80;;;;;;5051374;28;20052;-72
2022/07/16 10:53:27;;;;;;;3.08;1.60;;;51.40;45.00;;;;;;5051326;28;20121;-72
2022/07/16 10:56:45;;;;;;;2.88;1.42;;;50.60;45.80;;;;;;5051398;28;20044;-71
2022/07/16 10:59:51;;;;;;;3.35;1.17;;;51.00;46.10;;;;;;5051619;28;20040;-71
2022/07/16 11:03:01;;;;;;;2.22;1.42;;;51.80;45.80;;;;;;5051076;28;20040;-71
2022/07/16 11:06:05;;;;;;;2.38;1.25;;;52.20;45.80;;;;;;5051383;28;20052;-72
2022/07/16 11:09:10;;;;;;;1.58;1.10;;;52.10;45.60;;;;;;5051450;28;20044;-72
2022/07/16 11:12:24;;;;;;;2.65;1.40;;;51.10;44.90;;;;;;5051169;28;20067;-72
2022/07/16 11:15:27;;;;;;;3.15;1.58;;;48.80;46.40;;;;;;5050646;28;20044;-71
2022/07/16 11:18:39;;;;;;;2.70;1.63;;;45.40;47.60;;;;;;5051269;28;20048;-71
2022/07/16 11:22:01;;;;;;;3.97;1.50;;;46.40;47.60;;;;;;5050905;28;20426;-70
2022/07/16 11:25:06;;;;;;;1.83;1.40;;;47.50;47.60;;;;;;5050826;28;20040;-71
2022/07/16 11:28:11;;;;;;;2.45;1.40;;;48.40;47.00;;;;;;5051226;28;20048;-72
2022/07/16 11:31:32;;;;;;;3.42;1.90;;;48.70;47.00;;;;;;5050806;28;20388;-73
2022/07/16 11:34:37;;;;;;;3.58;1.40;;;49.20;46.50;;;;;;5050446;28;20120;-72
2022/07/16 11:38:07;;;;;;;2.83;1.52;;;48.40;47.30;;;;;;5049470;28;20387;-72
2022/07/16 11:41:11;;;;;;;4.30;1.50;;;47.90;47.40;;;;;;5050601;28;20506;-72
2022/07/16 11:44:29;;;;;;;5.40;1.70;;;46.60;47.60;;;;;;5049106;28;20379;-72
2022/07/16 11:47:33;;;;;;;4.38;1.92;;;46.70;47.70;;;;;;5050394;28;20052;-72
2022/07/16 11:50:37;;;;;;;2.30;1.38;;;46.70;47.90;;;;;;5050367;28;20044;-72
2022/07/16 11:53:41;;;;;;;4.35;1.50;;;46.30;47.60;;;;;;5049907;28;20056;-72
2022/07/16 11:56:45;;;;;;;2.47;1.50;;;46.20;47.80;;;;;;5050404;28;20525;-71
2022/07/16 11:59:52;;;;;;;1.73;1.63;;;46.20;48.50;;;;;;5049328;28;20079;-71
2022/07/16 12:02:58;;;;;;;3.35;1.58;;;47.00;47.80;;;;;;5049857;28;20039;-71
2022/07/16 12:06:03;;;;;;;2.35;1.48;;;47.70;47.60;;;;;;5050214;28;20040;-71
2022/07/16 12:09:07;;;;;;;5.43;1.50;;;48.20;47.40;;;;;;5050108;28;20040;-72
2022/07/16 12:12:14;;;;;;;3.30;1.70;;;48.00;47.00;;;;;;5050373;28;20052;-72
2022/07/16 12:15:18;;;;;;;5.93;1.60;;;47.10;47.70;;;;;;5049395;28;20036;-69
2022/07/16 12:18:23;;;;;;;2.10;1.50;;;46.70;48.00;;;;;;5049926;28;20076;-71
2022/07/16 12:21:30;;;;;;;5.55;1.98;;;46.30;48.30;;;;;;5049636;28;20052;-71
2022/07/16 12:24:34;;;;;;;4.90;1.80;;;46.10;48.70;;;;;;5049533;28;20044;-71
2022/07/16 12:27:49;;;;;;;5.25;2.10;;;45.10;48.50;;;;;;5048841;28;20499;-72
2022/07/16 12:30:57;;;;;;;2.25;1.60;;;45.20;48.80;;;;;;5050168;28;20100;-71
2022/07/16 12:34:04;;;;;;;6.95;1.85;;;45.00;48.80;;;;;;5050020;28;20099;-71
2022/07/16 12:37:15;;;;;;;4.07;2.13;;;44.00;49.10;;;;;;5051615;28;20048;-71
2022/07/16 12:40:19;;;;;;;5.15;1.85;;;44.10;49.80;;;;;;5054375;28;20044;-71
2022/07/16 12:43:23;;;;;;;4.00;1.90;;;44.00;49.90;;;;;;5053997;28;20076;-71
2022/07/16 15:34:59;;;;;;;5.90;2.50;;;38.00;55.70;;;;;;5049043;28;20040;-73
2022/07/16 15:38:03;;;;;;;15.30;2.70;;;37.90;56.10;;;;;;5050432;28;20048;-73
2022/07/16 15:41:08;;;;;;;5.63;2.47;;;37.80;56.80;;;;;;5038404;28;20048;-73
2022/07/16 15:44:12;;;;;;;5.20;2.72;;;37.70;56.80;;;;;;5050079;28;20048;-75
2022/07/16 15:47:16;;;;;;;3.03;2.22;;;37.20;57.10;;;;;;5050947;28;20047;-73
2022/07/16 15:50:20;;;;;;;11.70;3.08;;;37.40;57.90;;;;;;5050326;28;20048;-74
2022/07/16 15:53:25;;;;;;;3.05;2.20;;;37.40;58.60;;;;;;5050452;28;20128;-73
2022/07/16 15:56:30;;;;;;;4.40;2.75;;;37.30;59.10;;;;;;5050281;28;20043;-73
2022/07/16 15:59:41;;;;;;;3.33;2.78;;;37.00;59.20;;;;;;5050612;28;20491;-74
2022/07/16 16:02:45;;;;;;;6.57;2.70;;;37.10;59.90;;;;;;5038086;28;20372;-73
2022/07/16 16:05:49;;;;;;;4.53;3.10;;;37.10;59.30;;;;;;5050321;28;20051;-74
2022/07/16 16:08:53;;;;;;;4.03;2.33;;;37.00;59.50;;;;;;5050299;28;20434;-75
2022/07/16 16:11:57;;;;;;;14.18;2.72;;;37.00;59.60;;;;;;5049473;28;20530;-73
2022/07/16 16:15:03;;;;;;;4.22;2.72;;;37.00;59.80;;;;;;5050162;28;20526;-74
2022/07/16 16:18:12;;;;;;;12.07;3.15;;;36.80;60.10;;;;;;5049632;28;20032;-74
2022/07/16 16:21:16;;;;;;;3.67;2.67;;;36.70;60.60;;;;;;5050305;28;20040;-75
2022/07/16 16:24:21;;;;;;;3.63;2.67;;;36.50;60.30;;;;;;5043580;28;20052;-75
2022/07/16 16:27:25;;;;;;;5.03;2.92;;;36.50;60.40;;;;;;5050601;28;20479;-75
2022/07/16 16:30:31;;;;;;;7.50;2.75;;;36.50;60.30;;;;;;5032721;28;20069;-74
2022/07/16 16:33:35;;;;;;;3.42;2.78;;;36.40;60.40;;;;;;5049733;28;20051;-73
2022/07/16 16:36:39;;;;;;;5.22;2.40;;;36.40;60.30;;;;;;5049220;28;20048;-74
2022/07/16 16:39:44;;;;;;;3.83;3.20;;;36.30;60.50;;;;;;5049758;28;20044;-74
2022/07/16 16:42:49;;;;;;;2.80;2.58;;;36.30;61.10;;;;;;5049724;28;20040;-73
2022/07/16 16:45:53;;;;;;;4.43;2.40;;;36.10;61.30;;;;;;5050276;28;20040;-74
2022/07/16 16:48:56;;;;;;;4.57;2.70;;;35.90;61.70;;;;;;5037972;28;20056;-74
2022/07/16 16:52:01;;;;;;;5.55;2.75;;;35.90;61.70;;;;;;5050342;28;20069;-74
2022/07/16 16:55:06;;;;;;;4.55;2.47;;;35.90;61.90;;;;;;5049677;28;20048;-74
2022/07/16 16:58:11;;;;;;;3.80;2.60;;;35.70;62.00;;;;;;5050555;28;20040;-74
2022/07/16 17:01:15;;;;;;;3.80;2.45;;;35.70;62.10;;;;;;5049621;28;20048;-73
2022/07/16 17:04:20;;;;;;;3.60;2.70;;;35.60;62.40;;;;;;5049384;28;20495;-73
2022/07/16 17:07:24;;;;;;;8.00;3.00;;;35.40;62.20;;;;;;5049646;28;20388;-74
2022/07/16 17:10:28;;;;;;;5.53;2.97;;;35.30;62.00;;;;;;5044372;28;20498;-75
2022/07/16 17:13:31;;;;;;;5.78;2.47;;;35.30;62.20;;;;;;5049589;28;20055;-74
2022/07/16 17:16:35;;;;;;;4.43;2.63;;;35.10;62.60;;;;;;5049823;28;20500;-73
2022/07/16 17:19:39;;;;;;;4.57;2.90;;;35.10;62.70;;;;;;5049724;28;20047;-73
2022/07/16 17:22:44;;;;;;;4.97;2.70;;;35.00;62.80;;;;;;5051357;28;20040;-74
2022/07/16 17:25:48;;;;;;;4.28;2.33;;;34.90;62.80;;;;;;5053238;28;20048;-74
2022/07/16 17:28:52;;;;;;;5.60;2.83;;;34.80;63.00;;;;;;5053367;28;20052;-73
2022/07/16 17:31:56;;;;;;;2.88;2.47;;;34.70;62.90;;;;;;5040685;28;20060;-74
2022/07/16 17:35:00;;;;;;;5.13;2.72;;;34.50;62.90;;;;;;5052675;28;20060;-74
2022/07/16 17:38:04;;;;;;;8.50;2.70;;;34.50;63.30;;;;;;5051985;28;20044;-73
2022/07/16 17:41:09;;;;;;;4.50;2.88;;;34.40;63.40;;;;;;5052979;28;20055;-74
2022/07/16 17:44:13;;;;;;;4.53;2.50;;;34.20;63.50;;;;;;5052148;28;20036;-74
2022/07/16 17:47:17;;;;;;;5.10;2.90;;;34.10;63.30;;;;;;5052740;28;20064;-74
2022/07/16 17:50:21;;;;;;;5.35;2.67;;;34.10;63.70;;;;;;5052237;28;20047;-74
2022/07/16 17:53:25;;;;;;;7.22;2.88;;;34.00;64.10;;;;;;5039654;28;20387;-74
2022/07/16 17:56:29;;;;;;;10.25;2.88;;;33.90;64.50;;;;;;5052657;28;20052;-74
2022/07/16 17:59:33;;;;;;;6.05;2.70;;;33.70;64.20;;;;;;5052577;28;20047;-74
2022/07/16 18:02:39;;;;;;;6.05;2.90;;;33.60;64.40;;;;;;5052427;28;20040;-74
2022/07/16 18:05:44;;;;;;;3.97;3.03;;;33.50;64.50;;;;;;5052568;28;20036;-74
2022/07/16 18:08:49;;;;;;;8.02;2.70;;;33.30;64.80;;;;;;5052772;28;20064;-74
2022/07/16 18:11:54;;;;;;;8.25;3.15;;;33.20;65.00;;;;;;5052444;28;20036;-74
2022/07/16 18:14:57;;;;;;;5.38;3.25;;;33.00;65.00;;;;;;5051807;28;20040;-74
2022/07/16 18:18:01;;;;;;;4.55;3.08;;;32.90;65.30;;;;;;5052085;28;20040;-73
2022/07/16 18:21:06;;;;;;;6.75;3.03;;;32.70;65.50;;;;;;5052193;28;20036;-74
2022/07/16 18:24:10;;;;;;;3.10;2.80;;;32.60;65.90;;;;;;5051385;28;20044;-73
2022/07/16 18:27:15;;;;;;;5.18;2.90;;;32.40;66.10;;;;;;5052186;28;20069;-74
2022/07/16 18:30:18;;;;;;;4.35;3.15;;;32.30;66.40;;;;;;5051751;28;20040;-73
2022/07/16 18:33:22;;;;;;;4.07;3.22;;;32.20;66.60;;;;;;5051277;28;20048;-73
2022/07/16 18:36:27;;;;;;;4.53;3.60;;;32.00;66.80;;;;;;5051378;28;20044;-74
2022/07/16 18:39:30;;;;;;;5.20;3.17;;;31.80;67.10;;;;;;5051576;28;20384;-74
2022/07/16 18:42:36;;;;;;;6.47;3.30;;;31.70;67.20;;;;;;5051329;28;20040;-73
2022/07/16 18:45:39;;;;;;;5.60;3.22;;;31.50;67.40;;;;;;5051531;28;20048;-73
2022/07/16 18:48:44;;;;;;;3.72;3.10;;;31.40;67.60;;;;;;5051701;28;20052;-74
2022/07/16 18:51:48;;;;;;;4.90;3.22;;;31.30;68.00;;;;;;5051635;28;20044;-73